createdAt,value
2019-02-20T00:00:51.970Z,1.61
2019-02-20T00:03:21.547Z,1.79
2019-02-20T00:05:57.054Z,1.72
2019-02-20T00:08:26.130Z,1.58
2019-02-20T00:10:55.283Z,1.36
2019-02-20T00:13:24.409Z,1.24
2019-02-20T00:15:53.503Z,1.79
2019-02-20T00:18:23.852Z,1.70
2019-02-20T00:20:52.759Z,1.35
2019-02-20T00:23:21.872Z,1.16
2019-02-20T00:25:50.732Z,0.97
2019-02-20T00:28:19.601Z,0.85
2019-02-20T00:30:48.496Z,0.90
2019-02-20T00:33:17.319Z,0.77
2019-02-20T00:35:46.331Z,0.64
2019-02-20T00:38:15.330Z,0.57
2019-02-20T00:40:44.464Z,0.57
2019-02-20T00:43:13.377Z,0.68
2019-02-20T00:45:58.026Z,1.03
2019-02-20T00:48:57.925Z,1.12
2019-02-20T00:51:37.117Z,1.15
2019-02-20T00:54:09.193Z,1.00
2019-02-20T00:56:37.740Z,1.13
2019-02-20T00:59:06.634Z,1.08
2019-02-20T01:01:35.522Z,0.94
2019-02-20T01:04:05.163Z,0.86
2019-02-20T01:06:34.104Z,0.85
2019-02-20T01:09:03.116Z,0.79
2019-02-20T01:11:31.985Z,0.68
2019-02-20T01:14:01.092Z,0.46
2019-02-20T01:16:30.013Z,0.42
2019-02-20T01:18:58.889Z,0.44
2019-02-20T01:21:28.030Z,0.38
2019-02-20T01:23:57.233Z,0.52
2019-02-20T01:26:26.371Z,0.80
2019-02-20T01:28:55.261Z,1.08
2019-02-20T01:31:24.357Z,1.03
2019-02-20T01:33:53.501Z,1.14
2019-02-20T01:36:22.339Z,0.89
2019-02-20T01:38:51.350Z,0.56
2019-02-20T01:41:20.192Z,0.46
2019-02-20T01:43:49.072Z,0.34
2019-02-20T01:46:17.980Z,0.18
2019-02-20T01:48:46.992Z,0.16
2019-02-20T01:51:15.926Z,0.18
2019-02-20T01:53:44.716Z,0.21
2019-02-20T01:56:13.699Z,0.32
2019-02-20T01:58:42.572Z,0.32
2019-02-20T02:01:11.580Z,0.17
2019-02-20T02:03:40.635Z,0.03
2019-02-20T02:06:12.714Z,0.07
2019-02-20T02:08:41.618Z,0.05
2019-02-20T02:11:10.749Z,0.28
2019-02-20T02:13:39.846Z,0.31
2019-02-20T02:16:08.845Z,0.39
2019-02-20T02:18:37.700Z,0.35
2019-02-20T02:21:06.760Z,0.33
2019-02-20T02:23:40.133Z,0.42
2019-02-20T02:26:10.946Z,0.33
2019-02-20T02:28:39.143Z,0.31
2019-02-20T02:31:08.150Z,0.31
2019-02-20T02:33:37.090Z,0.20
2019-02-20T02:36:05.998Z,0.33
2019-02-20T02:38:35.120Z,0.30
2019-02-20T02:41:04.077Z,0.23
2019-02-20T02:43:32.855Z,0.15
2019-02-20T02:46:01.910Z,-0.01
2019-02-20T02:48:30.690Z,-0.09
2019-02-20T02:50:59.518Z,-0.14
2019-02-20T02:53:30.893Z,-0.26
2019-02-20T02:55:59.259Z,-0.24
2019-02-20T02:58:28.304Z,-0.17
2019-02-20T03:00:57.130Z,-0.20
2019-02-20T03:03:28.770Z,-0.20
2019-02-20T03:05:57.901Z,-0.21
2019-02-20T03:08:26.696Z,-0.21
2019-02-20T03:10:55.609Z,-0.15
2019-02-20T03:13:24.490Z,-0.04
2019-02-20T03:15:53.485Z,-0.03
2019-02-20T03:18:22.493Z,0.01
2019-02-20T03:20:51.393Z,-0.01
2019-02-20T03:23:20.422Z,0.03
2019-02-20T03:25:49.251Z,0.13
2019-02-20T03:28:18.049Z,0.07
2019-02-20T03:30:46.921Z,-0.01
2019-02-20T03:33:15.701Z,-0.05
2019-02-20T03:35:47.536Z,-0.04
2019-02-20T03:38:16.397Z,0.05
2019-02-20T03:40:45.394Z,0.04
2019-02-20T03:43:14.398Z,-0.09
2019-02-20T03:45:43.250Z,-0.14
2019-02-20T03:48:12.079Z,-0.22
2019-02-20T03:50:41.005Z,-0.24
2019-02-20T03:53:09.872Z,-0.23
2019-02-20T03:55:38.925Z,-0.28
2019-02-20T03:58:07.696Z,-0.39
2019-02-20T04:00:36.815Z,-0.46
2019-02-20T04:03:05.702Z,-0.47
2019-02-20T04:05:34.592Z,-0.49
2019-02-20T04:08:03.690Z,-0.46
2019-02-20T04:10:32.545Z,-0.41
2019-02-20T04:13:01.466Z,-0.14
2019-02-20T04:15:30.361Z,-0.22
2019-02-20T04:17:59.265Z,-0.29
2019-02-20T04:20:28.213Z,-0.39
2019-02-20T04:22:57.029Z,-0.50
2019-02-20T04:25:25.824Z,-0.49
2019-02-20T04:27:54.766Z,-0.22
2019-02-20T04:30:23.658Z,0.05
2019-02-20T04:32:52.581Z,-0.20
2019-02-20T04:35:21.613Z,-0.42
2019-02-20T04:37:50.454Z,-0.56
2019-02-20T04:40:19.431Z,-0.63
2019-02-20T04:42:48.319Z,-0.58
2019-02-20T04:45:17.236Z,-0.37
2019-02-20T04:47:46.109Z,-0.31
2019-02-20T04:50:15.057Z,-0.03
2019-02-20T04:52:44.022Z,-0.19
2019-02-20T04:55:12.865Z,-0.19
2019-02-20T04:57:41.728Z,-0.24
2019-02-20T05:00:12.424Z,-0.30
2019-02-20T05:02:41.436Z,-0.31
2019-02-20T05:05:10.522Z,-0.34
2019-02-20T05:07:39.523Z,-0.33
2019-02-20T05:10:09.593Z,-0.37
2019-02-20T05:12:38.635Z,-0.36
2019-02-20T05:15:07.679Z,-0.34
2019-02-20T05:17:36.692Z,-0.31
2019-02-20T05:20:06.006Z,-0.23
2019-02-20T05:22:34.812Z,-0.22
2019-02-20T05:25:03.804Z,-0.20
2019-02-20T05:27:32.668Z,-0.15
2019-02-20T05:30:01.438Z,-0.19
2019-02-20T05:32:30.320Z,0.06
2019-02-20T05:34:59.116Z,0.09
2019-02-20T05:37:28.140Z,0.21
2019-02-20T05:39:57.414Z,0.33
2019-02-20T05:42:26.313Z,0.24
2019-02-20T05:44:55.204Z,0.22
2019-02-20T05:47:24.080Z,0.13
2019-02-20T05:49:52.912Z,0.04
2019-02-20T05:52:21.861Z,-0.07
2019-02-20T05:54:50.790Z,-0.07
2019-02-20T05:57:19.797Z,-0.04
2019-02-20T05:59:48.695Z,-0.09
2019-02-20T06:02:17.661Z,-0.14
2019-02-20T06:04:46.597Z,-0.17
2019-02-20T06:07:15.753Z,-0.17
2019-02-20T06:09:44.742Z,-0.06
2019-02-20T06:12:13.729Z,-0.03
2019-02-20T06:14:42.624Z,0.03
2019-02-20T06:17:11.535Z,0.07
2019-02-20T06:19:40.582Z,0.04
2019-02-20T06:22:09.602Z,0.21
2019-02-20T06:25:00.409Z,0.11
2019-02-20T06:27:29.212Z,0.12
2019-02-20T06:29:58.170Z,0.13
2019-02-20T06:32:27.031Z,0.14
2019-02-20T06:34:55.939Z,0.11
2019-02-20T06:37:24.905Z,0.23
2019-02-20T06:39:53.806Z,0.32
2019-02-20T06:42:22.812Z,0.43
2019-02-20T06:44:51.627Z,0.53
2019-02-20T06:47:20.613Z,0.61
2019-02-20T06:49:49.649Z,0.71
2019-02-20T06:52:18.611Z,0.74
2019-02-20T06:54:53.932Z,0.82
2019-02-20T06:57:18.152Z,0.92
2019-02-20T06:59:47.426Z,0.93
2019-02-20T07:02:16.544Z,0.87
2019-02-20T07:05:22.233Z,0.92
2019-02-20T07:08:12.915Z,0.93
2019-02-20T07:11:09.098Z,1.03
2019-02-20T07:13:45.086Z,1.11
2019-02-20T07:16:53.308Z,1.17
2019-02-20T07:19:34.768Z,1.14
2019-02-20T07:22:36.131Z,1.28
2019-02-20T07:25:36.400Z,1.34
2019-02-20T07:28:39.786Z,1.44
2019-02-20T07:31:08.840Z,1.54
2019-02-20T07:33:37.633Z,1.64
2019-02-20T07:36:06.723Z,1.80
2019-02-20T07:38:35.548Z,1.85
2019-02-20T07:41:04.395Z,1.89
2019-02-20T07:43:33.438Z,2.03
2019-02-20T07:46:02.438Z,2.09
2019-02-20T07:48:31.475Z,2.13
2019-02-20T07:51:00.866Z,2.25
2019-02-20T07:53:29.845Z,2.25
2019-02-20T07:55:58.676Z,2.29
2019-02-20T07:58:27.471Z,2.23
2019-02-20T08:00:56.395Z,2.28
2019-02-20T08:03:25.313Z,2.36
2019-02-20T08:05:54.222Z,2.47
2019-02-20T08:08:23.296Z,2.47
2019-02-20T08:10:52.142Z,2.54
2019-02-20T08:13:21.026Z,2.55
2019-02-20T08:15:49.895Z,2.55
2019-02-20T08:18:18.799Z,2.70
2019-02-20T08:20:47.753Z,2.84
2019-02-20T08:23:16.792Z,2.97
2019-02-20T08:25:45.604Z,3.00
2019-02-20T08:28:14.500Z,3.05
2019-02-20T08:30:43.522Z,3.15
2019-02-20T08:33:12.482Z,2.99
2019-02-20T08:35:41.841Z,3.12
2019-02-20T08:38:10.723Z,3.19
2019-02-20T08:40:39.742Z,3.28
2019-02-20T08:43:08.688Z,3.38
2019-02-20T08:45:37.622Z,3.46
2019-02-20T08:48:06.589Z,3.61
2019-02-20T08:50:35.603Z,3.78
2019-02-20T08:53:04.606Z,3.91
2019-02-20T08:55:33.610Z,4.19
2019-02-20T08:58:02.821Z,4.33
2019-02-20T09:00:31.975Z,4.51
2019-02-20T09:03:00.932Z,4.85
2019-02-20T09:05:29.859Z,4.97
2019-02-20T09:07:58.648Z,5.32
2019-02-20T09:10:27.675Z,5.37
2019-02-20T09:12:56.674Z,5.59
2019-02-20T09:15:25.634Z,5.78
2019-02-20T09:17:55.392Z,6.06
2019-02-20T09:20:24.410Z,6.01
2019-02-20T09:22:53.220Z,5.99
2019-02-20T09:25:22.133Z,6.14
2019-02-20T09:27:50.941Z,6.24
2019-02-20T09:30:28.105Z,6.30
2019-02-20T09:32:50.617Z,6.51
2019-02-20T09:35:19.630Z,6.72
2019-02-20T09:37:48.818Z,6.94
2019-02-20T09:40:17.847Z,7.05
2019-02-20T09:42:47.592Z,7.10
2019-02-20T09:45:16.898Z,6.82
2019-02-20T09:47:45.891Z,6.96
2019-02-20T09:50:15.424Z,6.98
2019-02-20T09:52:52.019Z,7.13
2019-02-20T09:55:15.040Z,7.17
2019-02-20T09:57:44.043Z,7.40
2019-02-20T10:00:14.265Z,7.53
2019-02-20T10:02:43.277Z,7.56
2019-02-20T10:05:12.269Z,7.36
2019-02-20T10:07:41.200Z,7.32
2019-02-20T10:10:10.392Z,7.27
2019-02-20T10:12:39.447Z,7.18
2019-02-20T10:15:09.657Z,7.20
2019-02-20T10:17:38.559Z,6.90
2019-02-20T10:20:08.898Z,6.90
2019-02-20T10:22:37.774Z,6.85
2019-02-20T10:25:06.932Z,6.88
2019-02-20T10:27:35.903Z,6.94
2019-02-20T10:30:05.693Z,6.93
2019-02-20T10:32:34.670Z,7.05
2019-02-20T10:35:03.608Z,7.21
2019-02-20T10:37:32.725Z,7.36
2019-02-20T10:40:01.744Z,7.65
2019-02-20T10:42:30.737Z,8.22
2019-02-20T10:44:59.783Z,8.71
2019-02-20T10:47:28.725Z,8.74
2019-02-20T10:49:57.712Z,8.78
2019-02-20T10:52:26.792Z,9.02
2019-02-20T10:54:57.949Z,8.95
2019-02-20T10:57:26.668Z,8.93
2019-02-20T10:59:55.634Z,8.95
2019-02-20T11:02:24.799Z,9.01
2019-02-20T11:04:53.744Z,8.97
2019-02-20T11:07:22.784Z,9.01
2019-02-20T11:09:51.943Z,9.14
2019-02-20T11:12:21.086Z,9.27
2019-02-20T11:14:50.174Z,9.17
2019-02-20T11:17:19.301Z,9.20
2019-02-20T11:19:48.171Z,9.17
2019-02-20T11:22:17.075Z,9.34
2019-02-20T11:24:46.074Z,9.39
2019-02-20T11:27:15.184Z,9.53
2019-02-20T11:29:44.518Z,9.52
2019-02-20T11:32:13.570Z,9.56
2019-02-20T11:34:42.921Z,9.90
2019-02-20T11:37:12.164Z,10.22
2019-02-20T11:39:41.179Z,10.36
2019-02-20T11:42:10.243Z,10.33
2019-02-20T11:44:39.283Z,10.45
2019-02-20T11:47:08.285Z,10.15
2019-02-20T11:49:38.287Z,10.20
2019-02-20T11:52:07.375Z,9.42
2019-02-20T11:54:36.459Z,10.13
2019-02-20T11:57:05.670Z,10.32
2019-02-20T11:59:34.946Z,10.60
2019-02-20T12:02:04.056Z,10.63
2019-02-20T12:04:33.017Z,10.82
2019-02-20T12:07:01.978Z,10.92
2019-02-20T12:09:30.973Z,10.98
2019-02-20T12:12:00.095Z,11.15
2019-02-20T12:14:29.145Z,10.89
2019-02-20T12:16:58.227Z,10.60
2019-02-20T12:19:27.368Z,10.42
2019-02-20T12:21:56.339Z,10.59
2019-02-20T12:24:25.396Z,10.78
2019-02-20T12:26:54.269Z,10.97
2019-02-20T12:29:23.838Z,11.21
2019-02-20T12:31:52.892Z,11.22
2019-02-20T12:34:21.860Z,11.31
2019-02-20T12:36:50.926Z,11.29
2019-02-20T12:39:19.948Z,11.39
2019-02-20T12:41:49.035Z,11.09
2019-02-20T12:44:18.086Z,11.13
2019-02-20T12:46:47.774Z,11.33
2019-02-20T12:49:17.044Z,11.46
2019-02-20T12:51:46.149Z,11.36
2019-02-20T12:54:15.286Z,11.42
2019-02-20T12:56:44.415Z,11.14
2019-02-20T12:59:13.353Z,11.26
2019-02-20T13:01:42.375Z,11.42
2019-02-20T13:04:11.513Z,11.18
2019-02-20T13:06:40.550Z,11.24
2019-02-20T13:09:12.673Z,11.35
2019-02-20T13:11:41.696Z,11.14
2019-02-20T13:14:10.715Z,11.18
2019-02-20T13:16:39.627Z,11.09
2019-02-20T13:19:08.546Z,11.05
2019-02-20T13:21:37.543Z,11.14
2019-02-20T13:24:06.666Z,11.24
2019-02-20T13:26:35.702Z,11.53
2019-02-20T13:29:04.782Z,11.79
2019-02-20T13:31:33.755Z,12.08
2019-02-20T13:34:02.864Z,12.43
2019-02-20T13:36:31.845Z,12.44
2019-02-20T13:39:00.881Z,12.19
2019-02-20T13:41:30.161Z,12.10
2019-02-20T13:43:59.150Z,12.29
2019-02-20T13:46:28.137Z,12.12
2019-02-20T13:48:57.149Z,12.16
2019-02-20T13:51:26.358Z,12.05
2019-02-20T13:53:55.483Z,12.10
2019-02-20T13:56:24.581Z,12.13
2019-02-20T13:58:53.502Z,12.10
2019-02-20T14:01:22.582Z,12.03
2019-02-20T14:03:53.292Z,12.03
2019-02-20T14:06:22.333Z,12.17
2019-02-20T14:08:51.714Z,12.20
2019-02-20T14:11:20.735Z,12.16
2019-02-20T14:13:49.848Z,12.20
2019-02-20T14:16:19.051Z,12.34
2019-02-20T14:18:48.098Z,12.23
2019-02-20T14:21:17.180Z,11.80
2019-02-20T14:23:46.609Z,11.94
2019-02-20T14:26:15.643Z,12.26
2019-02-20T14:28:44.563Z,12.49
2019-02-20T14:31:13.672Z,12.57
2019-02-20T14:33:42.719Z,12.52
2019-02-20T14:36:11.814Z,12.30
2019-02-20T14:38:40.803Z,12.21
2019-02-20T14:41:09.943Z,12.41
2019-02-20T14:43:39.281Z,12.51
2019-02-20T14:46:08.354Z,12.25
2019-02-20T14:48:37.353Z,12.27
2019-02-20T14:51:06.523Z,12.43
2019-02-20T14:53:35.374Z,12.75
2019-02-20T14:56:04.698Z,12.98
2019-02-20T14:58:33.664Z,13.06
2019-02-20T15:01:03.010Z,13.13
2019-02-20T15:03:32.228Z,13.27
2019-02-20T15:06:01.182Z,13.20
2019-02-20T15:08:30.159Z,12.83
2019-02-20T15:10:59.252Z,12.64
2019-02-20T15:13:28.247Z,12.50
2019-02-20T15:15:57.330Z,12.85
2019-02-20T15:18:26.233Z,12.84
2019-02-20T15:20:55.309Z,12.72
2019-02-20T15:23:24.263Z,12.63
2019-02-20T15:25:53.259Z,12.54
2019-02-20T15:28:22.540Z,12.61
2019-02-20T15:30:51.551Z,12.49
2019-02-20T15:33:20.667Z,12.38
2019-02-20T15:35:51.298Z,12.38
2019-02-20T15:38:20.429Z,12.26
2019-02-20T15:40:49.427Z,12.13
2019-02-20T15:43:18.896Z,12.06
2019-02-20T15:45:47.842Z,12.16
2019-02-20T15:48:23.060Z,12.27
2019-02-20T15:50:47.459Z,12.13
2019-02-20T15:53:16.482Z,11.98
2019-02-20T15:55:45.839Z,11.93
2019-02-20T15:58:14.978Z,11.94
2019-02-20T16:00:44.147Z,11.75
2019-02-20T16:03:13.109Z,11.67
2019-02-20T16:05:42.198Z,11.68
2019-02-20T16:08:11.870Z,11.64
2019-02-20T16:10:40.817Z,11.70
2019-02-20T16:13:09.867Z,11.72
2019-02-20T16:15:39.302Z,11.84
2019-02-20T16:18:08.337Z,11.91
2019-02-20T16:20:37.338Z,11.92
2019-02-20T16:23:06.266Z,11.81
2019-02-20T16:25:35.259Z,11.72
2019-02-20T16:28:04.326Z,11.63
2019-02-20T16:30:33.218Z,11.39
2019-02-20T16:33:02.213Z,11.48
2019-02-20T16:35:31.068Z,11.34
2019-02-20T16:37:59.962Z,11.23
2019-02-20T16:40:28.951Z,11.17
2019-02-20T16:42:57.742Z,11.03
2019-02-20T16:45:26.803Z,10.88
2019-02-20T16:47:55.989Z,10.77
2019-02-20T16:50:24.972Z,10.63
2019-02-20T16:52:53.915Z,10.55
2019-02-20T16:55:23.051Z,10.52
2019-02-20T16:57:56.809Z,10.37
2019-02-20T17:00:23.179Z,10.20
2019-02-20T17:02:52.517Z,10.13
2019-02-20T17:05:21.603Z,10.08
2019-02-20T17:07:50.799Z,10.06
2019-02-20T17:10:20.169Z,10.04
2019-02-20T17:12:49.152Z,9.76
2019-02-20T17:15:18.295Z,10.02
2019-02-20T17:17:47.766Z,9.98
2019-02-20T17:20:17.783Z,9.87
2019-02-20T17:22:48.191Z,9.77
2019-02-20T17:25:17.241Z,9.65
2019-02-20T17:27:46.213Z,9.51
2019-02-20T17:30:15.615Z,9.37
2019-02-20T17:32:45.015Z,9.34
2019-02-20T17:35:14.624Z,9.26
2019-02-20T17:37:43.585Z,9.06
2019-02-20T17:40:13.105Z,8.93
2019-02-20T17:42:42.102Z,8.80
2019-02-20T17:45:11.735Z,8.68
2019-02-20T17:47:40.785Z,8.56
2019-02-20T17:50:12.259Z,8.45
2019-02-20T17:52:41.169Z,8.35
2019-02-20T17:55:10.348Z,8.26
2019-02-20T17:57:39.193Z,8.20
2019-02-20T18:00:10.072Z,8.19
2019-02-20T18:02:38.967Z,8.18
2019-02-20T18:05:08.355Z,8.19
2019-02-20T18:07:37.364Z,8.16
2019-02-20T18:10:06.457Z,8.25
2019-02-20T18:12:35.446Z,8.20
2019-02-20T18:15:05.170Z,8.29
2019-02-20T18:17:33.960Z,8.15
2019-02-20T18:20:02.936Z,8.08
2019-02-20T18:22:31.810Z,7.95
2019-02-20T18:25:00.785Z,7.98
2019-02-20T18:27:29.684Z,8.13
2019-02-20T18:29:58.508Z,7.93
2019-02-20T18:32:27.511Z,7.85
2019-02-20T18:35:00.799Z,8.05
2019-02-20T18:37:29.906Z,8.02
2019-02-20T18:39:58.895Z,7.66
2019-02-20T18:42:27.819Z,7.49
2019-02-20T18:44:56.821Z,7.44
2019-02-20T18:47:25.629Z,7.36
2019-02-20T18:49:54.438Z,7.29
2019-02-20T18:52:23.454Z,7.20
2019-02-20T18:54:52.427Z,7.04
2019-02-20T18:57:32.432Z,6.88
2019-02-20T19:00:01.397Z,6.92
2019-02-20T19:02:30.276Z,6.80
2019-02-20T19:04:59.124Z,6.65
2019-02-20T19:07:28.161Z,6.45
2019-02-20T19:09:57.181Z,6.32
2019-02-20T19:12:48.370Z,6.30
2019-02-20T19:16:02.037Z,6.28
2019-02-20T19:19:08.893Z,6.30
2019-02-20T19:22:21.561Z,6.15
2019-02-20T19:25:36.151Z,6.18
2019-02-20T19:28:19.436Z,6.03
2019-02-20T19:31:24.332Z,5.84
2019-02-20T19:34:24.145Z,5.84
2019-02-20T19:37:22.458Z,5.94
2019-02-20T19:40:13.235Z,5.83
2019-02-20T19:43:03.970Z,5.66
2019-02-20T19:46:13.292Z,5.69
2019-02-20T19:49:30.910Z,5.56
2019-02-20T19:52:36.145Z,5.39
2019-02-20T19:55:48.947Z,5.33
2019-02-20T19:58:43.537Z,5.33
2019-02-20T20:01:44.676Z,5.37
2019-02-20T20:04:57.490Z,5.28
2019-02-20T20:08:21.864Z,5.08
2019-02-20T20:11:06.504Z,4.92
2019-02-20T20:13:47.739Z,4.83
2019-02-20T20:16:40.799Z,4.78
2019-02-20T20:19:34.005Z,4.63
2019-02-20T20:22:47.777Z,4.49
2019-02-20T20:25:38.935Z,4.44
2019-02-20T20:28:45.172Z,4.33
2019-02-20T20:32:13.648Z,4.28
2019-02-20T20:35:06.014Z,4.25
2019-02-20T20:38:00.635Z,4.11
2019-02-20T20:41:04.312Z,4.18
2019-02-20T20:44:01.342Z,4.44
2019-02-20T20:47:20.461Z,4.35
2019-02-20T20:50:02.521Z,4.20
2019-02-20T20:53:27.725Z,4.19
2019-02-20T20:56:40.827Z,4.22
2019-02-20T20:59:40.269Z,4.18
2019-02-20T21:02:41.927Z,4.11
2019-02-20T21:05:48.381Z,4.16
2019-02-20T21:08:50.654Z,4.11
2019-02-20T21:11:57.773Z,3.95
2019-02-20T21:14:52.183Z,3.84
2019-02-20T21:18:06.115Z,3.75
2019-02-20T21:21:03.043Z,3.81
2019-02-20T21:24:12.877Z,3.76
2019-02-20T21:27:29.499Z,3.70
2019-02-20T21:30:38.421Z,3.74
2019-02-20T21:33:43.637Z,3.94
2019-02-20T21:36:37.193Z,3.94
2019-02-20T21:39:28.188Z,3.97
2019-02-20T21:42:28.855Z,3.96
2019-02-20T21:45:15.651Z,3.96
2019-02-20T21:48:13.577Z,4.01
2019-02-20T21:51:25.560Z,4.04
2019-02-20T21:54:17.851Z,4.19
2019-02-20T21:57:05.600Z,4.06
2019-02-20T22:00:10.436Z,3.80
2019-02-20T22:03:05.051Z,3.75
2019-02-20T22:06:12.084Z,3.82
2019-02-20T22:08:58.963Z,3.79
2019-02-20T22:11:50.191Z,3.78
2019-02-20T22:14:35.822Z,3.76
2019-02-20T22:17:49.148Z,3.82
2019-02-20T22:20:44.720Z,3.84
2019-02-20T22:23:24.431Z,3.79
2019-02-20T22:26:52.654Z,3.76
2019-02-20T22:30:01.476Z,3.81
2019-02-20T22:33:00.285Z,4.03
2019-02-20T22:36:06.381Z,3.99
2019-02-20T22:39:04.706Z,3.94
2019-02-20T22:42:22.097Z,3.88
2019-02-20T22:45:26.740Z,3.92
2019-02-20T22:48:29.564Z,4.04
2019-02-20T22:51:52.910Z,4.09
2019-02-20T22:54:55.754Z,4.12
2019-02-20T22:57:57.972Z,4.06
2019-02-20T23:01:02.889Z,3.96
2019-02-20T23:03:57.997Z,3.91
2019-02-20T23:07:29.370Z,3.72
2019-02-20T23:10:29.888Z,3.75
2019-02-20T23:13:36.101Z,3.56
2019-02-20T23:16:05.133Z,3.54
2019-02-20T23:18:34.147Z,3.45
2019-02-20T23:21:03.075Z,3.63
2019-02-20T23:23:31.966Z,3.62
2019-02-20T23:26:00.887Z,3.77
2019-02-20T23:28:31.071Z,3.59
2019-02-20T23:31:00.081Z,3.46
2019-02-20T23:33:28.883Z,3.70
2019-02-20T23:35:57.809Z,3.52
2019-02-20T23:38:26.812Z,3.44
2019-02-20T23:40:57.398Z,3.35
2019-02-20T23:43:26.543Z,3.44
2019-02-20T23:45:55.347Z,3.39
2019-02-20T23:48:24.205Z,3.36
2019-02-20T23:50:53.088Z,3.52
2019-02-20T23:53:21.904Z,3.69
2019-02-20T23:55:50.989Z,3.52
2019-02-20T23:58:19.947Z,3.43
